sensor_id;sensor_type;location;lat;lon;timestamp;temperature;humidity
15707;DHT22;7953;54.302;10.128;2024-02-26T00:01:51;2.80;99.90
15707;DHT22;7953;54.302;10.128;2024-02-26T00:04:18;2.70;99.90
15707;DHT22;7953;54.302;10.128;2024-02-26T00:06:46;2.70;99.90
15707;DHT22;7953;54.302;10.128;2024-02-26T00:09:13;2.60;99.90
15707;DHT22;7953;54.302;10.128;2024-02-26T00:11:40;2.50;99.90
15707;DHT22;7953;54.302;10.128;2024-02-26T00:14:07;2.50;99.90
15707;DHT22;7953;54.302;10.128;2024-02-26T00:16:34;2.40;99.90
15707;DHT22;7953;54.302;10.128;2024-02-26T00:19:00;2.40;99.90
15707;DHT22;7953;54.302;10.128;2024-02-26T00:21:28;2.30;99.90
15707;DHT22;7953;54.302;10.128;2024-02-26T00:23:56;2.30;99.90
15707;DHT22;7953;54.302;10.128;2024-02-26T00:26:23;2.30;99.90
15707;DHT22;7953;54.302;10.128;2024-02-26T00:28:49;2.20;99.90
15707;DHT22;7953;54.302;10.128;2024-02-26T00:31:16;2.20;99.90
15707;DHT22;7953;54.302;10.128;2024-02-26T00:33:43;2.10;99.90
15707;DHT22;7953;54.302;10.128;2024-02-26T00:36:10;2.10;99.90
15707;DHT22;7953;54.302;10.128;2024-02-26T00:38:37;2.10;99.90
15707;DHT22;7953;54.302;10.128;2024-02-26T00:41:06;2.20;99.90
15707;DHT22;7953;54.302;10.128;2024-02-26T00:43:33;2.20;99.90
15707;DHT22;7953;54.302;10.128;2024-02-26T00:46:00;2.10;99.90
15707;DHT22;7953;54.302;10.128;2024-02-26T00:48:27;2.10;99.90
15707;DHT22;7953;54.302;10.128;2024-02-26T00:50:54;2.00;99.90
15707;DHT22;7953;54.302;10.128;2024-02-26T00:53:21;2.00;99.90
15707;DHT22;7953;54.302;10.128;2024-02-26T00:55:48;2.10;99.90
15707;DHT22;7953;54.302;10.128;2024-02-26T00:58:16;2.20;99.90
15707;DHT22;7953;54.302;10.128;2024-02-26T01:00:43;2.10;99.90
15707;DHT22;7953;54.302;10.128;2024-02-26T01:03:10;2.00;99.90
15707;DHT22;7953;54.302;10.128;2024-02-26T01:05:37;1.90;99.90
15707;DHT22;7953;54.302;10.128;2024-02-26T01:08:04;1.90;99.90
15707;DHT22;7953;54.302;10.128;2024-02-26T01:10:31;1.80;99.90
15707;DHT22;7953;54.302;10.128;2024-02-26T01:12:58;1.80;99.90
15707;DHT22;7953;54.302;10.128;2024-02-26T01:15:26;1.80;99.90
15707;DHT22;7953;54.302;10.128;2024-02-26T01:17:53;1.80;99.90
15707;DHT22;7953;54.302;10.128;2024-02-26T01:20:20;1.80;99.90
15707;DHT22;7953;54.302;10.128;2024-02-26T01:22:47;1.70;99.90
15707;DHT22;7953;54.302;10.128;2024-02-26T01:25:14;1.70;99.90
15707;DHT22;7953;54.302;10.128;2024-02-26T01:27:41;1.70;99.90
15707;DHT22;7953;54.302;10.128;2024-02-26T01:30:10;1.70;99.90
15707;DHT22;7953;54.302;10.128;2024-02-26T01:32:38;1.60;99.90
15707;DHT22;7953;54.302;10.128;2024-02-26T01:35:06;1.60;99.90
15707;DHT22;7953;54.302;10.128;2024-02-26T01:37:35;1.60;99.90
15707;DHT22;7953;54.302;10.128;2024-02-26T01:40:02;1.60;99.90
15707;DHT22;7953;54.302;10.128;2024-02-26T01:42:30;1.60;99.90
15707;DHT22;7953;54.302;10.128;2024-02-26T01:44:58;1.50;99.90
15707;DHT22;7953;54.302;10.128;2024-02-26T01:47:25;1.50;99.90
15707;DHT22;7953;54.302;10.128;2024-02-26T01:49:54;1.50;99.90
15707;DHT22;7953;54.302;10.128;2024-02-26T01:52:21;1.30;99.90
15707;DHT22;7953;54.302;10.128;2024-02-26T01:54:49;1.30;99.90
15707;DHT22;7953;54.302;10.128;2024-02-26T01:57:16;1.30;99.90
15707;DHT22;7953;54.302;10.128;2024-02-26T01:59:43;1.20;99.90
15707;DHT22;7953;54.302;10.128;2024-02-26T02:02:11;1.10;99.90
15707;DHT22;7953;54.302;10.128;2024-02-26T02:04:39;1.10;99.90
15707;DHT22;7953;54.302;10.128;2024-02-26T02:07:08;1.10;99.90
15707;DHT22;7953;54.302;10.128;2024-02-26T02:09:35;1.10;99.90
15707;DHT22;7953;54.302;10.128;2024-02-26T02:12:02;1.00;99.90
15707;DHT22;7953;54.302;10.128;2024-02-26T02:14:29;1.10;99.90
15707;DHT22;7953;54.302;10.128;2024-02-26T02:16:56;1.00;99.90
15707;DHT22;7953;54.302;10.128;2024-02-26T02:19:22;1.00;99.90
15707;DHT22;7953;54.302;10.128;2024-02-26T02:21:51;1.00;99.90
15707;DHT22;7953;54.302;10.128;2024-02-26T02:24:17;1.00;99.90
15707;DHT22;7953;54.302;10.128;2024-02-26T02:26:44;1.00;99.90
15707;DHT22;7953;54.302;10.128;2024-02-26T02:29:12;1.00;99.90
15707;DHT22;7953;54.302;10.128;2024-02-26T02:31:39;1.00;99.90
15707;DHT22;7953;54.302;10.128;2024-02-26T02:34:06;1.00;99.90
15707;DHT22;7953;54.302;10.128;2024-02-26T02:36:33;1.00;99.90
15707;DHT22;7953;54.302;10.128;2024-02-26T02:39:01;1.00;99.90
15707;DHT22;7953;54.302;10.128;2024-02-26T02:41:28;0.90;99.90
15707;DHT22;7953;54.302;10.128;2024-02-26T02:43:55;0.90;99.90
15707;DHT22;7953;54.302;10.128;2024-02-26T02:46:23;0.90;99.90
15707;DHT22;7953;54.302;10.128;2024-02-26T02:48:50;1.00;99.90
15707;DHT22;7953;54.302;10.128;2024-02-26T02:51:16;0.90;99.90
15707;DHT22;7953;54.302;10.128;2024-02-26T02:53:43;0.90;99.90
15707;DHT22;7953;54.302;10.128;2024-02-26T02:56:11;0.80;99.90
15707;DHT22;7953;54.302;10.128;2024-02-26T02:58:38;0.80;99.90
15707;DHT22;7953;54.302;10.128;2024-02-26T03:01:05;0.80;99.90
15707;DHT22;7953;54.302;10.128;2024-02-26T03:03:32;0.80;99.90
15707;DHT22;7953;54.302;10.128;2024-02-26T03:05:59;0.80;99.90
15707;DHT22;7953;54.302;10.128;2024-02-26T03:08:26;0.70;99.90
15707;DHT22;7953;54.302;10.128;2024-02-26T03:10:52;0.70;99.90
15707;DHT22;7953;54.302;10.128;2024-02-26T03:13:21;0.70;99.90
15707;DHT22;7953;54.302;10.128;2024-02-26T03:15:48;0.70;99.90
15707;DHT22;7953;54.302;10.128;2024-02-26T03:18:15;0.70;99.90
15707;DHT22;7953;54.302;10.128;2024-02-26T03:20:42;0.70;99.90
15707;DHT22;7953;54.302;10.128;2024-02-26T03:23:09;0.70;99.90
15707;DHT22;7953;54.302;10.128;2024-02-26T03:25:38;0.70;99.90
15707;DHT22;7953;54.302;10.128;2024-02-26T03:28:05;0.70;99.90
15707;DHT22;7953;54.302;10.128;2024-02-26T03:30:34;0.70;99.90
15707;DHT22;7953;54.302;10.128;2024-02-26T03:33:01;0.60;99.90
15707;DHT22;7953;54.302;10.128;2024-02-26T03:35:28;0.60;99.90
15707;DHT22;7953;54.302;10.128;2024-02-26T03:37:54;0.60;99.90
15707;DHT22;7953;54.302;10.128;2024-02-26T03:40:21;0.60;99.90
15707;DHT22;7953;54.302;10.128;2024-02-26T03:42:48;0.60;99.90
15707;DHT22;7953;54.302;10.128;2024-02-26T03:45:15;0.60;99.90
15707;DHT22;7953;54.302;10.128;2024-02-26T03:47:43;0.60;99.90
15707;DHT22;7953;54.302;10.128;2024-02-26T03:50:10;0.60;99.90
15707;DHT22;7953;54.302;10.128;2024-02-26T03:52:37;0.60;99.90
15707;DHT22;7953;54.302;10.128;2024-02-26T03:55:04;0.60;99.90
15707;DHT22;7953;54.302;10.128;2024-02-26T03:57:31;0.70;99.90
15707;DHT22;7953;54.302;10.128;2024-02-26T03:59:58;0.70;99.90
15707;DHT22;7953;54.302;10.128;2024-02-26T04:02:25;0.70;99.90
15707;DHT22;7953;54.302;10.128;2024-02-26T04:04:53;0.70;99.90
15707;DHT22;7953;54.302;10.128;2024-02-26T04:07:20;0.60;99.90
15707;DHT22;7953;54.302;10.128;2024-02-26T04:09:47;0.60;99.90
15707;DHT22;7953;54.302;10.128;2024-02-26T04:12:14;0.60;99.90
15707;DHT22;7953;54.302;10.128;2024-02-26T04:14:41;0.60;99.90
15707;DHT22;7953;54.302;10.128;2024-02-26T04:17:08;0.60;99.90
15707;DHT22;7953;54.302;10.128;2024-02-26T04:19:34;0.60;99.90
15707;DHT22;7953;54.302;10.128;2024-02-26T04:22:03;0.50;99.90
15707;DHT22;7953;54.302;10.128;2024-02-26T04:24:31;0.50;99.90
15707;DHT22;7953;54.302;10.128;2024-02-26T04:26:57;0.50;99.90
15707;DHT22;7953;54.302;10.128;2024-02-26T04:29:24;0.40;99.90
15707;DHT22;7953;54.302;10.128;2024-02-26T04:31:51;0.40;99.90
15707;DHT22;7953;54.302;10.128;2024-02-26T04:34:18;0.50;99.90
15707;DHT22;7953;54.302;10.128;2024-02-26T04:36:44;0.40;99.90
15707;DHT22;7953;54.302;10.128;2024-02-26T04:39:14;0.40;99.90
15707;DHT22;7953;54.302;10.128;2024-02-26T04:41:41;0.40;99.90
15707;DHT22;7953;54.302;10.128;2024-02-26T04:44:08;0.40;99.90
15707;DHT22;7953;54.302;10.128;2024-02-26T04:46:35;0.40;99.90
15707;DHT22;7953;54.302;10.128;2024-02-26T04:49:02;0.40;99.90
15707;DHT22;7953;54.302;10.128;2024-02-26T04:51:29;0.40;99.90
15707;DHT22;7953;54.302;10.128;2024-02-26T04:53:55;0.40;99.90
15707;DHT22;7953;54.302;10.128;2024-02-26T04:56:24;0.40;99.90
15707;DHT22;7953;54.302;10.128;2024-02-26T04:58:51;0.40;99.90
15707;DHT22;7953;54.302;10.128;2024-02-26T05:01:18;0.40;99.90
15707;DHT22;7953;54.302;10.128;2024-02-26T05:03:45;0.40;99.90
15707;DHT22;7953;54.302;10.128;2024-02-26T05:06:12;0.30;99.90
15707;DHT22;7953;54.302;10.128;2024-02-26T05:08:39;0.30;99.90
15707;DHT22;7953;54.302;10.128;2024-02-26T05:11:06;0.40;99.90
15707;DHT22;7953;54.302;10.128;2024-02-26T05:13:34;0.30;99.90
15707;DHT22;7953;54.302;10.128;2024-02-26T05:16:01;0.30;99.90
15707;DHT22;7953;54.302;10.128;2024-02-26T05:18:28;0.30;99.90
15707;DHT22;7953;54.302;10.128;2024-02-26T05:20:55;0.30;99.90
15707;DHT22;7953;54.302;10.128;2024-02-26T05:23:22;0.30;99.90
15707;DHT22;7953;54.302;10.128;2024-02-26T05:25:49;0.30;99.90
15707;DHT22;7953;54.302;10.128;2024-02-26T05:28:15;0.20;99.90
15707;DHT22;7953;54.302;10.128;2024-02-26T05:30:47;0.20;99.90
15707;DHT22;7953;54.302;10.128;2024-02-26T05:33:14;0.10;99.90
15707;DHT22;7953;54.302;10.128;2024-02-26T05:35:40;0.10;99.90
15707;DHT22;7953;54.302;10.128;2024-02-26T05:38:07;0.10;99.90
15707;DHT22;7953;54.302;10.128;2024-02-26T05:40:34;0.10;99.90
15707;DHT22;7953;54.302;10.128;2024-02-26T05:43:01;0.10;99.90
15707;DHT22;7953;54.302;10.128;2024-02-26T05:45:28;0.10;99.90
15707;DHT22;7953;54.302;10.128;2024-02-26T05:47:56;0.10;99.90
15707;DHT22;7953;54.302;10.128;2024-02-26T05:50:23;0.10;99.90
15707;DHT22;7953;54.302;10.128;2024-02-26T05:52:49;0.10;99.90
15707;DHT22;7953;54.302;10.128;2024-02-26T05:55:16;0.10;99.90
15707;DHT22;7953;54.302;10.128;2024-02-26T05:57:43;0.10;99.90
15707;DHT22;7953;54.302;10.128;2024-02-26T06:00:11;0.10;99.90
15707;DHT22;7953;54.302;10.128;2024-02-26T06:02:38;0.00;99.90
15707;DHT22;7953;54.302;10.128;2024-02-26T06:05:07;0.10;99.90
15707;DHT22;7953;54.302;10.128;2024-02-26T06:07:34;0.10;99.90
15707;DHT22;7953;54.302;10.128;2024-02-26T06:10:01;0.20;99.90
15707;DHT22;7953;54.302;10.128;2024-02-26T06:12:30;0.10;99.90
15707;DHT22;7953;54.302;10.128;2024-02-26T06:14:58;0.10;99.90
15707;DHT22;7953;54.302;10.128;2024-02-26T06:17:26;0.10;99.90
15707;DHT22;7953;54.302;10.128;2024-02-26T06:19:53;0.10;99.90
15707;DHT22;7953;54.302;10.128;2024-02-26T06:22:21;0.10;99.90
15707;DHT22;7953;54.302;10.128;2024-02-26T06:24:48;0.10;99.90
15707;DHT22;7953;54.302;10.128;2024-02-26T06:27:15;0.00;99.90
15707;DHT22;7953;54.302;10.128;2024-02-26T06:29:42;0.10;99.90
15707;DHT22;7953;54.302;10.128;2024-02-26T06:32:08;0.10;99.90
15707;DHT22;7953;54.302;10.128;2024-02-26T06:34:35;0.10;99.90
15707;DHT22;7953;54.302;10.128;2024-02-26T06:37:03;0.10;99.90
15707;DHT22;7953;54.302;10.128;2024-02-26T06:39:32;0.10;99.90
15707;DHT22;7953;54.302;10.128;2024-02-26T06:41:58;0.10;99.90
15707;DHT22;7953;54.302;10.128;2024-02-26T06:44:27;0.20;99.90
15707;DHT22;7953;54.302;10.128;2024-02-26T06:46:57;0.20;99.90
15707;DHT22;7953;54.302;10.128;2024-02-26T06:49:24;0.30;99.90
15707;DHT22;7953;54.302;10.128;2024-02-26T06:51:51;0.20;99.90
15707;DHT22;7953;54.302;10.128;2024-02-26T06:54:18;0.20;99.90
15707;DHT22;7953;54.302;10.128;2024-02-26T06:56:46;0.20;99.90
15707;DHT22;7953;54.302;10.128;2024-02-26T06:59:13;0.20;99.90
15707;DHT22;7953;54.302;10.128;2024-02-26T07:01:41;0.40;99.90
15707;DHT22;7953;54.302;10.128;2024-02-26T07:04:08;0.40;99.90
15707;DHT22;7953;54.302;10.128;2024-02-26T07:06:36;0.40;99.90
15707;DHT22;7953;54.302;10.128;2024-02-26T07:09:03;0.40;99.90
15707;DHT22;7953;54.302;10.128;2024-02-26T07:11:30;0.40;99.90
15707;DHT22;7953;54.302;10.128;2024-02-26T07:13:58;0.40;99.90
15707;DHT22;7953;54.302;10.128;2024-02-26T07:16:26;0.50;99.90
15707;DHT22;7953;54.302;10.128;2024-02-26T07:18:53;0.50;99.90
15707;DHT22;7953;54.302;10.128;2024-02-26T07:21:20;0.60;99.90
15707;DHT22;7953;54.302;10.128;2024-02-26T07:23:47;0.60;99.90
15707;DHT22;7953;54.302;10.128;2024-02-26T07:26:14;0.70;99.90
15707;DHT22;7953;54.302;10.128;2024-02-26T07:28:43;0.70;99.90
15707;DHT22;7953;54.302;10.128;2024-02-26T07:31:11;0.80;99.90
15707;DHT22;7953;54.302;10.128;2024-02-26T07:33:38;0.90;99.90
15707;DHT22;7953;54.302;10.128;2024-02-26T07:36:05;0.90;99.90
15707;DHT22;7953;54.302;10.128;2024-02-26T07:38:32;1.00;99.90
15707;DHT22;7953;54.302;10.128;2024-02-26T07:40:58;1.10;99.90
15707;DHT22;7953;54.302;10.128;2024-02-26T07:43:25;1.10;99.90
15707;DHT22;7953;54.302;10.128;2024-02-26T07:45:52;1.20;99.90
15707;DHT22;7953;54.302;10.128;2024-02-26T07:48:20;1.20;99.90
15707;DHT22;7953;54.302;10.128;2024-02-26T07:50:47;1.20;99.90
15707;DHT22;7953;54.302;10.128;2024-02-26T07:53:14;1.30;99.90
15707;DHT22;7953;54.302;10.128;2024-02-26T07:55:41;1.30;99.90
15707;DHT22;7953;54.302;10.128;2024-02-26T07:58:08;1.30;99.90
15707;DHT22;7953;54.302;10.128;2024-02-26T08:00:34;1.40;99.90
15707;DHT22;7953;54.302;10.128;2024-02-26T08:03:01;1.50;99.90
15707;DHT22;7953;54.302;10.128;2024-02-26T08:05:30;1.50;99.90
15707;DHT22;7953;54.302;10.128;2024-02-26T08:07:56;1.50;99.90
15707;DHT22;7953;54.302;10.128;2024-02-26T08:10:23;1.60;99.90
15707;DHT22;7953;54.302;10.128;2024-02-26T08:12:50;1.60;99.90
15707;DHT22;7953;54.302;10.128;2024-02-26T08:15:17;1.60;99.90
15707;DHT22;7953;54.302;10.128;2024-02-26T08:17:44;1.60;99.90
15707;DHT22;7953;54.302;10.128;2024-02-26T08:20:13;1.70;99.90
15707;DHT22;7953;54.302;10.128;2024-02-26T08:22:41;1.70;99.90
15707;DHT22;7953;54.302;10.128;2024-02-26T08:25:09;1.70;99.90
15707;DHT22;7953;54.302;10.128;2024-02-26T08:27:36;1.70;99.90
15707;DHT22;7953;54.302;10.128;2024-02-26T08:30:03;1.70;99.90
15707;DHT22;7953;54.302;10.128;2024-02-26T08:32:30;1.70;99.90
15707;DHT22;7953;54.302;10.128;2024-02-26T08:34:57;1.80;99.90
15707;DHT22;7953;54.302;10.128;2024-02-26T08:37:24;1.90;99.90
15707;DHT22;7953;54.302;10.128;2024-02-26T08:39:52;2.00;99.90
15707;DHT22;7953;54.302;10.128;2024-02-26T08:42:19;2.00;99.90
15707;DHT22;7953;54.302;10.128;2024-02-26T08:44:46;2.10;99.90
15707;DHT22;7953;54.302;10.128;2024-02-26T08:47:13;2.10;99.90
15707;DHT22;7953;54.302;10.128;2024-02-26T08:49:42;2.20;99.90
15707;DHT22;7953;54.302;10.128;2024-02-26T08:52:09;2.20;99.90
15707;DHT22;7953;54.302;10.128;2024-02-26T08:54:36;2.30;99.90
15707;DHT22;7953;54.302;10.128;2024-02-26T08:57:05;2.40;99.90
15707;DHT22;7953;54.302;10.128;2024-02-26T08:59:32;2.50;99.90
15707;DHT22;7953;54.302;10.128;2024-02-26T09:01:59;2.60;99.90
15707;DHT22;7953;54.302;10.128;2024-02-26T09:04:25;2.70;99.90
15707;DHT22;7953;54.302;10.128;2024-02-26T09:06:53;2.70;99.90
15707;DHT22;7953;54.302;10.128;2024-02-26T09:09:20;2.80;99.90
15707;DHT22;7953;54.302;10.128;2024-02-26T09:11:47;2.80;99.90
15707;DHT22;7953;54.302;10.128;2024-02-26T09:14:18;2.90;99.90
15707;DHT22;7953;54.302;10.128;2024-02-26T09:16:45;2.90;99.90
15707;DHT22;7953;54.302;10.128;2024-02-26T09:19:13;3.00;99.90
15707;DHT22;7953;54.302;10.128;2024-02-26T09:21:42;3.10;99.90
15707;DHT22;7953;54.302;10.128;2024-02-26T09:24:09;3.10;99.90
15707;DHT22;7953;54.302;10.128;2024-02-26T09:26:36;3.10;99.90
15707;DHT22;7953;54.302;10.128;2024-02-26T09:29:03;3.20;99.90
15707;DHT22;7953;54.302;10.128;2024-02-26T09:31:32;3.20;99.90
15707;DHT22;7953;54.302;10.128;2024-02-26T09:33:59;3.20;99.90
15707;DHT22;7953;54.302;10.128;2024-02-26T09:36:26;3.20;99.90
15707;DHT22;7953;54.302;10.128;2024-02-26T09:38:53;3.30;99.90
15707;DHT22;7953;54.302;10.128;2024-02-26T09:41:20;3.30;99.90
15707;DHT22;7953;54.302;10.128;2024-02-26T09:43:48;3.30;99.90
15707;DHT22;7953;54.302;10.128;2024-02-26T09:46:19;3.40;99.90
15707;DHT22;7953;54.302;10.128;2024-02-26T09:48:47;3.40;99.90
15707;DHT22;7953;54.302;10.128;2024-02-26T09:51:15;3.40;99.90
15707;DHT22;7953;54.302;10.128;2024-02-26T09:53:43;3.50;99.90
15707;DHT22;7953;54.302;10.128;2024-02-26T09:56:11;3.50;99.90
15707;DHT22;7953;54.302;10.128;2024-02-26T09:58:39;3.50;99.90
15707;DHT22;7953;54.302;10.128;2024-02-26T10:01:11;3.60;99.90
15707;DHT22;7953;54.302;10.128;2024-02-26T10:03:39;3.60;99.90
15707;DHT22;7953;54.302;10.128;2024-02-26T10:06:09;3.60;99.90
15707;DHT22;7953;54.302;10.128;2024-02-26T10:08:36;3.60;99.90
15707;DHT22;7953;54.302;10.128;2024-02-26T10:11:04;3.70;99.90
15707;DHT22;7953;54.302;10.128;2024-02-26T10:13:31;3.70;99.90
15707;DHT22;7953;54.302;10.128;2024-02-26T10:16:00;3.70;99.90
15707;DHT22;7953;54.302;10.128;2024-02-26T10:18:45;3.70;99.90
15707;DHT22;7953;54.302;10.128;2024-02-26T10:21:13;3.80;99.90
15707;DHT22;7953;54.302;10.128;2024-02-26T10:23:42;3.80;99.90
15707;DHT22;7953;54.302;10.128;2024-02-26T10:26:10;3.90;99.90
15707;DHT22;7953;54.302;10.128;2024-02-26T10:28:39;3.90;99.90
15707;DHT22;7953;54.302;10.128;2024-02-26T10:31:06;3.90;99.90
15707;DHT22;7953;54.302;10.128;2024-02-26T10:33:34;4.00;99.90
15707;DHT22;7953;54.302;10.128;2024-02-26T10:36:02;4.10;99.90
15707;DHT22;7953;54.302;10.128;2024-02-26T10:38:32;4.20;99.90
15707;DHT22;7953;54.302;10.128;2024-02-26T10:40:59;4.10;99.90
15707;DHT22;7953;54.302;10.128;2024-02-26T10:43:26;4.10;99.90
15707;DHT22;7953;54.302;10.128;2024-02-26T10:45:55;4.10;99.90
15707;DHT22;7953;54.302;10.128;2024-02-26T10:48:22;4.10;99.90
15707;DHT22;7953;54.302;10.128;2024-02-26T10:50:49;4.20;99.90
15707;DHT22;7953;54.302;10.128;2024-02-26T10:53:17;4.20;99.90
15707;DHT22;7953;54.302;10.128;2024-02-26T10:55:52;4.20;99.90
15707;DHT22;7953;54.302;10.128;2024-02-26T10:58:20;4.20;99.90
15707;DHT22;7953;54.302;10.128;2024-02-26T11:00:49;4.20;99.90
15707;DHT22;7953;54.302;10.128;2024-02-26T11:03:17;4.20;99.90
15707;DHT22;7953;54.302;10.128;2024-02-26T11:05:47;4.20;99.90
15707;DHT22;7953;54.302;10.128;2024-02-26T11:08:15;4.30;99.90
15707;DHT22;7953;54.302;10.128;2024-02-26T11:10:42;4.40;99.90
15707;DHT22;7953;54.302;10.128;2024-02-26T11:13:14;4.50;99.90
15707;DHT22;7953;54.302;10.128;2024-02-26T11:15:44;4.50;99.90
15707;DHT22;7953;54.302;10.128;2024-02-26T11:18:14;4.50;99.90
15707;DHT22;7953;54.302;10.128;2024-02-26T11:20:41;4.50;99.90
15707;DHT22;7953;54.302;10.128;2024-02-26T11:23:09;4.60;99.90
15707;DHT22;7953;54.302;10.128;2024-02-26T11:25:36;4.60;99.90
15707;DHT22;7953;54.302;10.128;2024-02-26T11:28:06;4.60;99.90
15707;DHT22;7953;54.302;10.128;2024-02-26T11:30:39;4.60;99.90
15707;DHT22;7953;54.302;10.128;2024-02-26T11:33:07;4.70;99.90
15707;DHT22;7953;54.302;10.128;2024-02-26T11:35:34;4.80;99.90
15707;DHT22;7953;54.302;10.128;2024-02-26T11:38:03;4.80;99.90
15707;DHT22;7953;54.302;10.128;2024-02-26T11:40:32;4.80;99.90
15707;DHT22;7953;54.302;10.128;2024-02-26T11:42:59;4.90;99.90
15707;DHT22;7953;54.302;10.128;2024-02-26T11:45:50;5.00;99.90
15707;DHT22;7953;54.302;10.128;2024-02-26T11:48:20;5.10;99.90
15707;DHT22;7953;54.302;10.128;2024-02-26T11:50:49;5.20;99.90
15707;DHT22;7953;54.302;10.128;2024-02-26T11:53:21;5.20;99.90
15707;DHT22;7953;54.302;10.128;2024-02-26T11:55:48;5.30;99.90
15707;DHT22;7953;54.302;10.128;2024-02-26T11:58:35;5.40;99.90
15707;DHT22;7953;54.302;10.128;2024-02-26T12:01:04;5.60;99.90
15707;DHT22;7953;54.302;10.128;2024-02-26T12:03:31;5.80;99.90
15707;DHT22;7953;54.302;10.128;2024-02-26T12:05:58;6.00;99.90
15707;DHT22;7953;54.302;10.128;2024-02-26T12:08:25;6.20;99.90
15707;DHT22;7953;54.302;10.128;2024-02-26T12:10:54;6.40;99.90
15707;DHT22;7953;54.302;10.128;2024-02-26T12:13:29;6.60;99.90
15707;DHT22;7953;54.302;10.128;2024-02-26T12:15:57;6.80;99.90
15707;DHT22;7953;54.302;10.128;2024-02-26T12:18:26;6.90;99.90
15707;DHT22;7953;54.302;10.128;2024-02-26T12:21:04;7.00;99.90
15707;DHT22;7953;54.302;10.128;2024-02-26T12:23:31;7.10;99.90
15707;DHT22;7953;54.302;10.128;2024-02-26T12:25:58;7.20;99.90
15707;DHT22;7953;54.302;10.128;2024-02-26T12:28:27;7.20;99.90
15707;DHT22;7953;54.302;10.128;2024-02-26T12:30:55;7.20;99.90
15707;DHT22;7953;54.302;10.128;2024-02-26T12:33:26;7.30;99.90
15707;DHT22;7953;54.302;10.128;2024-02-26T12:35:53;7.30;99.90
15707;DHT22;7953;54.302;10.128;2024-02-26T12:38:20;7.30;99.90
15707;DHT22;7953;54.302;10.128;2024-02-26T12:40:47;7.30;99.90
15707;DHT22;7953;54.302;10.128;2024-02-26T12:43:15;7.40;99.90
15707;DHT22;7953;54.302;10.128;2024-02-26T12:45:42;7.40;99.90
15707;DHT22;7953;54.302;10.128;2024-02-26T12:48:12;7.40;99.90
15707;DHT22;7953;54.302;10.128;2024-02-26T12:50:44;7.40;99.90
15707;DHT22;7953;54.302;10.128;2024-02-26T12:53:12;7.30;99.90
15707;DHT22;7953;54.302;10.128;2024-02-26T12:55:39;7.30;99.90
15707;DHT22;7953;54.302;10.128;2024-02-26T12:58:08;7.30;99.90
15707;DHT22;7953;54.302;10.128;2024-02-26T13:00:35;7.30;99.90
15707;DHT22;7953;54.302;10.128;2024-02-26T13:03:03;7.30;99.90
15707;DHT22;7953;54.302;10.128;2024-02-26T13:05:30;7.40;99.90
15707;DHT22;7953;54.302;10.128;2024-02-26T13:07:59;7.40;99.90
15707;DHT22;7953;54.302;10.128;2024-02-26T13:10:26;7.40;99.90
15707;DHT22;7953;54.302;10.128;2024-02-26T13:12:52;7.40;99.90
15707;DHT22;7953;54.302;10.128;2024-02-26T13:15:21;7.40;99.90
15707;DHT22;7953;54.302;10.128;2024-02-26T13:17:48;7.30;99.90
15707;DHT22;7953;54.302;10.128;2024-02-26T13:20:25;7.30;99.90
15707;DHT22;7953;54.302;10.128;2024-02-26T13:23:01;7.20;99.90
15707;DHT22;7953;54.302;10.128;2024-02-26T13:25:28;7.20;99.90
15707;DHT22;7953;54.302;10.128;2024-02-26T13:28:06;7.20;99.90
15707;DHT22;7953;54.302;10.128;2024-02-26T13:30:32;7.20;99.90
15707;DHT22;7953;54.302;10.128;2024-02-26T13:33:07;7.10;99.90
15707;DHT22;7953;54.302;10.128;2024-02-26T13:35:34;7.10;99.90
15707;DHT22;7953;54.302;10.128;2024-02-26T13:38:03;7.10;99.90
15707;DHT22;7953;54.302;10.128;2024-02-26T13:40:30;7.10;99.90
15707;DHT22;7953;54.302;10.128;2024-02-26T13:42:57;7.10;99.90
15707;DHT22;7953;54.302;10.128;2024-02-26T13:45:24;7.00;99.90
15707;DHT22;7953;54.302;10.128;2024-02-26T13:47:51;7.00;99.90
15707;DHT22;7953;54.302;10.128;2024-02-26T13:50:18;7.00;99.90
15707;DHT22;7953;54.302;10.128;2024-02-26T13:52:48;7.00;99.90
15707;DHT22;7953;54.302;10.128;2024-02-26T13:55:20;6.90;99.90
15707;DHT22;7953;54.302;10.128;2024-02-26T13:57:49;6.90;99.90
15707;DHT22;7953;54.302;10.128;2024-02-26T14:00:18;6.90;99.90
15707;DHT22;7953;54.302;10.128;2024-02-26T14:02:44;6.90;99.90
15707;DHT22;7953;54.302;10.128;2024-02-26T14:05:11;6.90;99.90
15707;DHT22;7953;54.302;10.128;2024-02-26T14:07:39;6.90;99.90
15707;DHT22;7953;54.302;10.128;2024-02-26T14:10:07;6.90;99.90
15707;DHT22;7953;54.302;10.128;2024-02-26T14:12:37;7.00;99.90
15707;DHT22;7953;54.302;10.128;2024-02-26T14:15:05;7.00;99.90
15707;DHT22;7953;54.302;10.128;2024-02-26T14:17:32;7.00;99.90
15707;DHT22;7953;54.302;10.128;2024-02-26T14:19:59;7.00;99.90
15707;DHT22;7953;54.302;10.128;2024-02-26T14:22:26;7.00;99.90
15707;DHT22;7953;54.302;10.128;2024-02-26T14:24:53;7.00;99.90
15707;DHT22;7953;54.302;10.128;2024-02-26T14:27:20;7.00;99.90
15707;DHT22;7953;54.302;10.128;2024-02-26T14:29:49;7.00;99.90
15707;DHT22;7953;54.302;10.128;2024-02-26T14:32:16;7.00;99.90
15707;DHT22;7953;54.302;10.128;2024-02-26T14:34:44;7.10;99.90
15707;DHT22;7953;54.302;10.128;2024-02-26T14:37:10;7.10;99.90
15707;DHT22;7953;54.302;10.128;2024-02-26T14:39:37;7.00;99.90
15707;DHT22;7953;54.302;10.128;2024-02-26T14:42:05;7.00;99.90
15707;DHT22;7953;54.302;10.128;2024-02-26T14:44:32;7.00;99.90
15707;DHT22;7953;54.302;10.128;2024-02-26T14:47:00;7.00;99.90
15707;DHT22;7953;54.302;10.128;2024-02-26T14:49:27;6.90;99.90
15707;DHT22;7953;54.302;10.128;2024-02-26T14:51:56;6.80;99.90
15707;DHT22;7953;54.302;10.128;2024-02-26T14:54:23;6.80;99.90
15707;DHT22;7953;54.302;10.128;2024-02-26T14:56:50;6.80;99.90
15707;DHT22;7953;54.302;10.128;2024-02-26T14:59:16;6.80;99.90
15707;DHT22;7953;54.302;10.128;2024-02-26T15:01:43;6.70;99.90
15707;DHT22;7953;54.302;10.128;2024-02-26T15:04:12;6.70;99.90
15707;DHT22;7953;54.302;10.128;2024-02-26T15:06:39;6.70;99.90
15707;DHT22;7953;54.302;10.128;2024-02-26T15:09:06;6.70;99.90
15707;DHT22;7953;54.302;10.128;2024-02-26T15:11:33;6.60;99.90
15707;DHT22;7953;54.302;10.128;2024-02-26T15:14:04;6.60;99.90
15707;DHT22;7953;54.302;10.128;2024-02-26T15:16:30;6.60;99.90
15707;DHT22;7953;54.302;10.128;2024-02-26T15:18:57;6.60;99.90
15707;DHT22;7953;54.302;10.128;2024-02-26T15:21:25;6.50;99.90
15707;DHT22;7953;54.302;10.128;2024-02-26T15:23:52;6.50;99.90
15707;DHT22;7953;54.302;10.128;2024-02-26T15:26:19;6.40;99.90
15707;DHT22;7953;54.302;10.128;2024-02-26T15:28:47;6.40;99.90
15707;DHT22;7953;54.302;10.128;2024-02-26T15:31:15;6.30;99.90
15707;DHT22;7953;54.302;10.128;2024-02-26T15:33:42;6.30;99.90
15707;DHT22;7953;54.302;10.128;2024-02-26T15:36:09;6.30;99.90
15707;DHT22;7953;54.302;10.128;2024-02-26T15:38:38;6.20;99.90
15707;DHT22;7953;54.302;10.128;2024-02-26T15:41:10;6.20;99.90
15707;DHT22;7953;54.302;10.128;2024-02-26T15:43:38;6.20;99.90
15707;DHT22;7953;54.302;10.128;2024-02-26T15:46:05;6.20;99.90
15707;DHT22;7953;54.302;10.128;2024-02-26T15:48:32;6.10;99.90